Time;durP1;ratioP1;P1;durP2;ratioP2;P2;SDS_P1;SDS_P2;PMS_P1;PMS_P2;Temp;Humidity;BMP_temperature;BMP_pressure;BME280_temperature;BME280_humidity;BME280_pressure;Samples;Min_cycle;Max_cycle;Signal;HPM_P1;HPM_P2
2023/01/17 00:01:29;;;;;;;1.93;0.90;;;3.40;99.90;;;;;;5005846;28;20175;-38
2023/01/17 00:12:07;;;;;;;0.93;0.70;;;3.30;99.90;;;;;;4994053;28;20203;-42
2023/01/17 00:14:33;;;;;;;1.63;0.90;;;3.30;99.90;;;;;;4976377;28;20208;-39
2023/01/17 00:17:00;;;;;;;2.37;0.93;;;3.20;99.90;;;;;;5009278;28;20179;-40
2023/01/17 01:34:31;;;;;;;0.50;0.50;;;2.80;99.90;;;;;;4993534;28;20204;-40
2023/01/17 01:36:57;;;;;;;0.87;0.50;;;2.80;99.90;;;;;;5010729;28;20179;-40
2023/01/17 01:39:23;;;;;;;0.63;0.60;;;2.80;99.90;;;;;;4994110;28;20214;-39
2023/01/17 01:41:48;;;;;;;0.50;0.50;;;2.90;99.90;;;;;;4991836;28;20176;-42
2023/01/17 01:44:47;;;;;;;0.60;0.53;;;2.90;99.90;;;;;;4990935;28;20196;-38
2023/01/17 01:47:20;;;;;;;0.47;0.47;;;2.90;99.90;;;;;;4974766;28;20180;-41
2023/01/17 01:49:47;;;;;;;0.60;0.50;;;2.80;99.90;;;;;;4992213;28;20223;-39
2023/01/17 01:52:15;;;;;;;0.43;0.43;;;2.80;99.90;;;;;;5011523;28;20175;-41
2023/01/17 01:54:48;;;;;;;0.50;0.50;;;2.80;99.90;;;;;;5008493;28;20199;-38
2023/01/17 01:57:17;;;;;;;0.63;0.50;;;2.80;99.90;;;;;;4991207;28;20633;-37
2023/01/17 02:00:13;;;;;;;0.80;0.80;;;2.80;99.90;;;;;;4991733;28;20191;-36
2023/01/17 02:02:41;;;;;;;0.77;0.77;;;2.80;99.90;;;;;;4990291;28;20206;-40
2023/01/17 02:05:08;;;;;;;0.70;0.70;;;2.80;99.90;;;;;;5004889;28;20731;-41
2023/01/17 02:08:07;;;;;;;0.60;0.60;;;2.80;99.90;;;;;;4991652;28;20231;-38
2023/01/17 02:10:34;;;;;;;0.70;0.70;;;2.70;99.90;;;;;;4994090;28;20195;-40
2023/01/17 02:13:01;;;;;;;1.77;0.90;;;2.70;99.90;;;;;;5010218;28;20175;-38
2023/01/17 02:15:40;;;;;;;0.87;0.87;;;2.70;99.90;;;;;;5004984;28;20232;-39
2023/01/17 02:18:12;;;;;;;2.00;1.10;;;2.70;99.90;;;;;;4998423;28;20218;-38
2023/01/17 02:21:16;;;;;;;1.30;0.97;;;2.70;99.90;;;;;;5009508;28;20179;-37
2023/01/17 02:23:59;;;;;;;1.13;1.03;;;2.70;99.90;;;;;;5028937;28;20182;-35
2023/01/17 02:26:47;;;;;;;1.63;0.83;;;2.60;99.90;;;;;;5002912;28;20199;-38
2023/01/17 02:29:34;;;;;;;1.33;1.00;;;2.60;99.90;;;;;;4997453;28;20257;-41
2023/01/17 02:32:21;;;;;;;1.27;1.00;;;2.60;99.90;;;;;;5014098;28;20190;-38
2023/01/17 02:34:53;;;;;;;1.30;1.00;;;2.60;99.90;;;;;;5014652;28;20203;-38
2023/01/17 02:37:39;;;;;;;0.80;0.80;;;2.60;99.90;;;;;;4998260;28;20179;-36
2023/01/17 02:40:08;;;;;;;2.03;1.17;;;2.60;99.90;;;;;;5013843;28;20203;-39
2023/01/17 02:42:39;;;;;;;2.10;1.17;;;2.60;99.90;;;;;;5014774;28;20209;-39
2023/01/17 02:45:06;;;;;;;1.20;1.10;;;2.60;99.90;;;;;;5014801;28;20233;-40
2023/01/17 02:47:33;;;;;;;0.97;0.73;;;2.60;99.90;;;;;;5016512;28;20702;-35
2023/01/17 02:50:12;;;;;;;0.83;0.83;;;2.60;99.90;;;;;;5017404;28;20189;-41
2023/01/17 02:53:21;;;;;;;1.10;1.00;;;2.60;99.90;;;;;;4996815;28;20180;-37
2023/01/17 02:56:14;;;;;;;1.20;1.10;;;2.60;99.90;;;;;;4964590;28;20301;-37
2023/01/17 02:59:15;;;;;;;1.13;0.93;;;2.60;99.90;;;;;;4996679;28;20222;-38
2023/01/17 03:01:53;;;;;;;2.70;1.60;;;2.60;99.90;;;;;;4967789;28;20203;-38
2023/01/17 03:04:57;;;;;;;2.10;1.40;;;2.60;99.90;;;;;;5000948;28;20202;-40
2023/01/17 03:07:25;;;;;;;1.77;1.37;;;2.60;99.90;;;;;;5000690;28;20686;-38
2023/01/17 03:09:58;;;;;;;3.67;1.50;;;2.60;99.90;;;;;;5015393;28;20267;-37
2023/01/17 03:12:27;;;;;;;2.30;1.60;;;2.60;99.90;;;;;;4996443;28;20270;-38
2023/01/17 03:14:52;;;;;;;4.27;1.50;;;2.60;99.90;;;;;;5012853;28;20248;-40
2023/01/17 03:17:18;;;;;;;2.47;1.40;;;2.60;99.90;;;;;;5016139;28;20183;-37
2023/01/17 03:19:44;;;;;;;2.00;1.43;;;2.60;99.90;;;;;;5015545;28;20217;-38
2023/01/17 03:22:10;;;;;;;1.50;1.20;;;2.60;99.90;;;;;;5016144;28;20270;-36
2023/01/17 03:24:36;;;;;;;1.77;1.10;;;2.60;99.90;;;;;;5022447;28;20198;-37
2023/01/17 03:27:02;;;;;;;1.87;1.40;;;2.60;99.90;;;;;;5016075;28;20183;-39
2023/01/17 03:29:28;;;;;;;1.63;0.90;;;2.60;99.90;;;;;;5005669;28;20190;-38
2023/01/17 03:31:53;;;;;;;0.90;0.80;;;2.50;99.90;;;;;;4999886;28;20204;-37
2023/01/17 03:34:19;;;;;;;1.80;0.97;;;2.60;99.90;;;;;;5008282;28;20195;-38
2023/01/17 03:36:45;;;;;;;1.90;1.30;;;2.60;99.90;;;;;;5012256;28;20555;-38
2023/01/17 03:39:10;;;;;;;2.30;1.50;;;2.60;99.90;;;;;;5012353;28;20771;-42
2023/01/17 03:41:36;;;;;;;2.30;1.80;;;2.60;99.90;;;;;;5014136;28;20172;-40
2023/01/17 03:44:02;;;;;;;7.00;4.07;;;2.60;99.90;;;;;;5012683;28;20568;-41
2023/01/17 03:46:28;;;;;;;6.30;3.83;;;2.60;99.90;;;;;;5012470;28;20172;-36
2023/01/17 03:48:54;;;;;;;4.80;3.00;;;2.60;99.90;;;;;;5012552;28;20318;-37
2023/01/17 03:51:20;;;;;;;2.77;2.00;;;2.60;99.90;;;;;;5009736;28;20184;-42
2023/01/17 03:53:46;;;;;;;2.80;1.80;;;2.60;99.90;;;;;;4994211;28;20210;-40
2023/01/17 03:56:13;;;;;;;2.83;1.80;;;2.60;99.90;;;;;;4979063;28;20202;-42
2023/01/17 03:58:40;;;;;;;2.50;1.90;;;2.60;99.90;;;;;;5012328;28;20243;-42
2023/01/17 04:01:06;;;;;;;2.70;1.40;;;2.60;99.90;;;;;;5012360;28;20194;-41
2023/01/17 04:03:32;;;;;;;1.20;0.90;;;2.60;99.90;;;;;;4994044;28;20195;-41
2023/01/17 04:05:58;;;;;;;1.00;0.90;;;2.60;99.90;;;;;;5022281;28;20268;-40
2023/01/17 04:08:23;;;;;;;2.60;1.00;;;2.60;99.90;;;;;;5012110;28;20195;-40
2023/01/17 04:10:49;;;;;;;2.80;1.27;;;2.60;99.90;;;;;;5004319;28;20184;-41
2023/01/17 04:13:15;;;;;;;2.27;1.10;;;2.60;99.90;;;;;;4992910;28;20187;-39
2023/01/17 04:15:44;;;;;;;1.20;1.10;;;2.60;99.90;;;;;;4999710;28;20207;-41
2023/01/17 04:18:12;;;;;;;2.23;0.90;;;2.60;99.90;;;;;;5028513;28;20203;-38
2023/01/17 04:20:39;;;;;;;1.17;0.90;;;2.60;99.90;;;;;;5025644;28;20254;-41
2023/01/17 04:23:05;;;;;;;1.40;1.00;;;2.60;99.90;;;;;;5011963;28;20179;-41
2023/01/17 04:25:31;;;;;;;1.20;0.87;;;2.50;99.90;;;;;;5011259;28;20214;-42
2023/01/17 04:27:59;;;;;;;1.90;1.00;;;2.50;99.90;;;;;;5013562;28;20172;-42
2023/01/17 04:30:26;;;;;;;2.10;1.27;;;2.50;99.90;;;;;;5011157;28;20187;-41
2023/01/17 04:32:51;;;;;;;3.50;1.70;;;2.50;99.90;;;;;;5007434;28;20191;-41
2023/01/17 04:35:17;;;;;;;3.43;2.13;;;2.50;99.90;;;;;;5018999;28;20290;-42
2023/01/17 04:37:43;;;;;;;3.50;2.40;;;2.50;99.90;;;;;;5007882;28;20184;-42
2023/01/17 04:40:11;;;;;;;2.73;1.50;;;2.50;99.90;;;;;;5017244;28;20226;-42
2023/01/17 04:42:39;;;;;;;1.67;1.37;;;2.50;99.90;;;;;;4992554;28;20299;-42
2023/01/17 04:45:09;;;;;;;1.90;1.40;;;2.50;99.90;;;;;;4998159;28;20203;-41
2023/01/17 04:47:37;;;;;;;1.83;1.40;;;2.40;99.90;;;;;;5024993;28;20202;-42
2023/01/17 04:50:03;;;;;;;1.50;1.20;;;2.40;99.90;;;;;;4999473;28;20212;-41
2023/01/17 04:52:28;;;;;;;2.10;1.90;;;2.30;99.90;;;;;;4992791;28;20188;-41
2023/01/17 04:54:54;;;;;;;1.87;1.70;;;2.30;99.90;;;;;;5017932;28;20203;-42
2023/01/17 04:57:21;;;;;;;5.63;3.23;;;2.30;99.90;;;;;;5007021;28;20199;-41
2023/01/17 04:59:46;;;;;;;2.67;1.80;;;2.20;99.90;;;;;;4999056;28;20204;-40
2023/01/17 05:02:13;;;;;;;1.93;1.50;;;2.10;99.90;;;;;;5005143;28;20187;-42
2023/01/17 05:04:39;;;;;;;1.53;1.30;;;2.10;99.90;;;;;;5021251;28;20237;-41
2023/01/17 05:07:05;;;;;;;2.03;1.20;;;2.10;99.90;;;;;;5019644;28;20298;-41
2023/01/17 05:09:31;;;;;;;2.33;1.50;;;2.10;99.90;;;;;;5009861;28;20652;-41
2023/01/17 05:11:57;;;;;;;1.97;1.00;;;2.10;99.90;;;;;;5010747;28;20221;-42
2023/01/17 05:14:26;;;;;;;1.97;1.20;;;2.10;99.90;;;;;;5010962;28;20226;-40
2023/01/17 05:16:53;;;;;;;1.67;0.90;;;2.10;99.90;;;;;;4997668;28;20385;-38
2023/01/17 05:19:19;;;;;;;1.37;0.90;;;2.10;99.90;;;;;;5010656;28;20203;-39
2023/01/17 05:21:45;;;;;;;1.33;1.00;;;2.10;99.90;;;;;;4998872;28;20191;-38
2023/01/17 05:24:10;;;;;;;2.20;1.17;;;2.20;99.90;;;;;;4992407;28;20202;-39
2023/01/17 05:26:36;;;;;;;3.23;1.20;;;2.20;99.90;;;;;;5023773;28;20232;-39
2023/01/17 05:29:02;;;;;;;1.43;0.90;;;2.20;99.90;;;;;;5012173;28;20187;-40
2023/01/17 05:31:28;;;;;;;3.00;1.07;;;2.30;99.90;;;;;;5009538;28;20178;-40
2023/01/17 05:33:54;;;;;;;1.20;0.80;;;2.30;99.90;;;;;;4998494;28;20187;-39
2023/01/17 05:36:20;;;;;;;1.10;0.90;;;2.30;99.90;;;;;;5023457;28;20183;-37
2023/01/17 05:38:45;;;;;;;2.97;0.97;;;2.30;99.90;;;;;;5015060;28;20211;-38
2023/01/17 05:41:11;;;;;;;1.10;0.73;;;2.30;99.90;;;;;;5007296;28;20210;-39
2023/01/17 05:43:37;;;;;;;3.70;0.93;;;2.20;99.90;;;;;;5000841;28;20273;-39
2023/01/17 05:46:03;;;;;;;0.90;0.77;;;2.20;99.90;;;;;;5007748;28;20189;-36
2023/01/17 05:48:28;;;;;;;2.33;0.80;;;2.10;99.90;;;;;;5011978;28;20190;-39
2023/01/17 05:50:54;;;;;;;1.60;1.50;;;2.20;99.90;;;;;;5002211;28;20184;-38
2023/01/17 05:53:21;;;;;;;1.37;0.87;;;2.20;99.90;;;;;;5009022;28;20186;-40
2023/01/17 05:55:48;;;;;;;1.77;1.17;;;2.10;99.90;;;;;;4986950;28;20204;-41
2023/01/17 05:58:17;;;;;;;1.10;1.10;;;2.00;99.90;;;;;;4995639;28;20203;-39
2023/01/17 06:00:43;;;;;;;1.43;1.07;;;1.90;99.90;;;;;;4996570;28;20262;-42
2023/01/17 06:03:10;;;;;;;2.37;1.20;;;1.90;99.90;;;;;;4984962;28;20604;-41
2023/01/17 06:05:36;;;;;;;1.83;1.10;;;1.80;99.90;;;;;;4999424;28;20191;-37
2023/01/17 06:08:02;;;;;;;1.30;0.90;;;1.70;99.90;;;;;;5000300;28;20194;-39
2023/01/17 06:10:28;;;;;;;1.60;1.50;;;1.60;99.90;;;;;;5011537;28;20215;-37
2023/01/17 06:13:02;;;;;;;1.67;1.00;;;1.60;99.90;;;;;;4998097;28;20213;-41
2023/01/17 06:15:28;;;;;;;1.30;1.00;;;1.60;99.90;;;;;;5004637;28;20211;-41
2023/01/17 06:17:54;;;;;;;9.67;1.37;;;1.50;99.90;;;;;;5001154;28;20209;-41
2023/01/17 06:20:20;;;;;;;2.40;1.50;;;1.50;99.90;;;;;;5002091;28;20187;-41
2023/01/17 06:22:46;;;;;;;2.00;1.27;;;1.60;99.90;;;;;;5017173;28;20225;-42
2023/01/17 06:25:11;;;;;;;2.37;1.60;;;1.60;99.90;;;;;;5015297;28;20649;-41
2023/01/17 06:27:37;;;;;;;5.33;3.33;;;1.60;99.90;;;;;;5005478;28;20191;-39
2023/01/17 06:30:03;;;;;;;10.23;7.57;;;1.60;99.90;;;;;;5005702;28;20171;-38
2023/01/17 06:32:29;;;;;;;7.23;4.33;;;1.70;99.90;;;;;;5001532;28;20191;-38
2023/01/17 06:34:55;;;;;;;3.80;2.80;;;1.70;99.90;;;;;;4995590;28;20560;-35
2023/01/17 06:37:21;;;;;;;3.90;2.40;;;1.70;99.90;;;;;;4990355;28;20596;-38
2023/01/17 06:39:47;;;;;;;3.17;2.10;;;1.70;99.90;;;;;;4994654;28;20241;-37
2023/01/17 06:42:13;;;;;;;3.53;2.00;;;1.70;99.90;;;;;;5004528;28;20178;-36
2023/01/17 06:44:39;;;;;;;3.13;1.83;;;1.70;99.90;;;;;;4990250;28;20261;-37
2023/01/17 06:47:05;;;;;;;2.77;2.13;;;1.70;99.90;;;;;;5006449;28;20333;-41
2023/01/17 06:49:30;;;;;;;2.77;2.03;;;1.70;99.90;;;;;;5004806;28;20192;-39
2023/01/17 06:51:56;;;;;;;1.93;1.63;;;1.70;99.90;;;;;;4997277;28;20182;-38
2023/01/17 06:54:22;;;;;;;4.93;1.43;;;1.60;99.90;;;;;;4992836;28;20204;-37
2023/01/17 06:56:48;;;;;;;3.90;1.37;;;1.60;99.90;;;;;;4991577;28;20195;-37
2023/01/17 06:59:13;;;;;;;2.20;1.60;;;1.60;99.90;;;;;;4998184;28;20238;-40
2023/01/17 07:01:40;;;;;;;3.07;2.67;;;1.60;99.90;;;;;;5009394;28;20208;-36
2023/01/17 07:04:06;;;;;;;3.80;1.30;;;1.50;99.90;;;;;;5019291;28;20204;-37
2023/01/17 07:06:34;;;;;;;1.77;1.10;;;1.40;99.90;;;;;;5009531;28;20186;-39
2023/01/17 07:08:59;;;;;;;1.57;1.10;;;1.40;99.90;;;;;;5010991;28;20217;-38
2023/01/17 07:11:26;;;;;;;2.37;1.80;;;1.40;99.90;;;;;;5013300;28;20183;-38
2023/01/17 07:13:52;;;;;;;1.63;1.40;;;1.40;99.90;;;;;;5013311;28;20180;-39
2023/01/17 07:16:18;;;;;;;4.37;1.37;;;1.40;99.90;;;;;;5013048;28;20231;-40
2023/01/17 07:18:44;;;;;;;1.57;1.13;;;1.40;99.90;;;;;;5029515;28;20309;-39
2023/01/17 07:21:14;;;;;;;2.13;1.10;;;1.30;99.90;;;;;;5029583;28;20187;-38
2023/01/17 07:23:40;;;;;;;3.03;1.27;;;1.30;99.90;;;;;;5013219;28;20183;-38
2023/01/17 07:26:06;;;;;;;1.83;1.23;;;1.30;99.90;;;;;;5012999;28;20273;-35
2023/01/17 07:28:32;;;;;;;1.70;1.30;;;1.20;99.90;;;;;;5012906;28;20668;-37
2023/01/17 07:31:03;;;;;;;1.97;1.33;;;1.20;99.90;;;;;;5012550;28;20190;-36
2023/01/17 07:33:28;;;;;;;1.60;1.33;;;1.20;99.90;;;;;;5020598;28;20199;-37
2023/01/17 07:35:54;;;;;;;2.27;1.37;;;1.20;99.90;;;;;;4992212;28;20222;-39
2023/01/17 07:38:20;;;;;;;3.03;1.30;;;1.20;99.90;;;;;;4993085;28;20214;-34
2023/01/17 07:40:46;;;;;;;3.87;1.80;;;1.10;99.90;;;;;;4993247;28;20270;-36
2023/01/17 07:43:14;;;;;;;6.27;2.70;;;1.10;99.90;;;;;;4993361;28;20203;-35
2023/01/17 07:45:51;;;;;;;13.17;7.07;;;1.10;99.90;;;;;;4992773;28;20204;-39
2023/01/17 07:48:18;;;;;;;8.30;4.43;;;1.10;99.90;;;;;;4993208;28;20210;-38
2023/01/17 07:50:44;;;;;;;5.27;3.17;;;1.20;99.90;;;;;;4994213;28;20179;-36
2023/01/17 07:53:10;;;;;;;4.50;2.90;;;1.20;99.90;;;;;;4993244;28;20176;-41
2023/01/17 07:55:35;;;;;;;13.50;6.03;;;1.30;99.90;;;;;;4995157;28;20211;-38
2023/01/17 07:58:01;;;;;;;11.97;6.43;;;1.30;99.90;;;;;;4994866;28;20214;-40
2023/01/17 08:00:27;;;;;;;11.80;5.90;;;1.40;99.90;;;;;;4993305;28;20187;-41
2023/01/17 08:02:57;;;;;;;7.60;3.80;;;1.50;99.90;;;;;;4998101;28;20199;-39
2023/01/17 08:05:23;;;;;;;7.50;3.83;;;1.50;99.90;;;;;;5009496;28;20249;-39
2023/01/17 08:07:49;;;;;;;5.03;3.50;;;1.60;99.90;;;;;;5013591;28;20202;-38
2023/01/17 08:10:16;;;;;;;8.07;4.30;;;1.60;99.90;;;;;;5013243;28;20195;-37
2023/01/17 08:12:47;;;;;;;3.43;2.23;;;1.60;99.90;;;;;;5013178;28;20183;-40
2023/01/17 08:15:14;;;;;;;2.43;1.50;;;1.50;99.90;;;;;;5012287;28;20202;-39
2023/01/17 08:17:47;;;;;;;2.13;1.50;;;1.40;99.90;;;;;;5013449;28;20183;-38
2023/01/17 08:20:14;;;;;;;6.40;4.57;;;1.40;99.90;;;;;;5013119;28;20192;-39
2023/01/17 08:22:40;;;;;;;3.37;2.40;;;1.50;99.90;;;;;;5004284;28;20181;-35
2023/01/17 08:25:06;;;;;;;2.93;1.40;;;1.50;99.90;;;;;;4997356;28;20202;-37
2023/01/17 08:27:32;;;;;;;5.33;1.53;;;1.60;99.90;;;;;;5014967;28;20283;-38
2023/01/17 08:29:58;;;;;;;2.27;1.50;;;1.50;99.90;;;;;;5018067;28;20318;-37
2023/01/17 08:32:24;;;;;;;2.53;1.53;;;1.60;99.90;;;;;;5002250;28;20184;-40
2023/01/17 08:34:50;;;;;;;3.33;2.40;;;1.70;99.90;;;;;;5004171;28;20203;-39
2023/01/17 08:37:16;;;;;;;5.00;2.97;;;1.80;99.90;;;;;;4993163;28;20187;-37
2023/01/17 08:39:41;;;;;;;7.13;3.60;;;1.90;99.90;;;;;;5003712;28;20225;-35
2023/01/17 08:42:07;;;;;;;7.60;4.20;;;2.00;99.90;;;;;;5006097;28;20176;-41
2023/01/17 08:44:33;;;;;;;5.23;3.23;;;2.10;99.90;;;;;;5012257;28;20279;-39
2023/01/17 08:47:00;;;;;;;3.37;3.00;;;2.10;99.90;;;;;;5003601;28;20183;-38
2023/01/17 08:49:26;;;;;;;2.93;2.40;;;2.20;99.90;;;;;;4997103;28;20176;-37
2023/01/17 08:51:52;;;;;;;4.07;2.63;;;2.30;99.90;;;;;;4999490;28;20556;-39
2023/01/17 08:54:21;;;;;;;4.53;3.10;;;2.30;99.90;;;;;;5008383;28;20286;-37
2023/01/17 08:56:48;;;;;;;5.13;2.80;;;2.40;99.90;;;;;;4999147;28;20180;-41
2023/01/17 08:59:14;;;;;;;4.87;2.37;;;2.40;99.90;;;;;;4999464;28;20203;-37
2023/01/17 09:01:44;;;;;;;2.27;2.03;;;2.40;99.90;;;;;;4998109;28;20173;-37
2023/01/17 09:04:11;;;;;;;2.53;1.80;;;2.40;99.90;;;;;;5004107;28;20289;-35
2023/01/17 09:06:44;;;;;;;2.10;1.90;;;2.20;99.90;;;;;;4996710;28;20176;-36
2023/01/17 09:09:10;;;;;;;2.87;1.83;;;2.10;99.90;;;;;;5016048;28;20187;-38
2023/01/17 09:11:36;;;;;;;3.20;2.13;;;2.00;99.90;;;;;;5010662;28;20276;-35
2023/01/17 09:14:03;;;;;;;3.33;2.00;;;2.10;99.90;;;;;;5012037;28;20306;-38
2023/01/17 09:16:29;;;;;;;4.37;2.00;;;2.10;99.90;;;;;;5011015;28;20191;-39
2023/01/17 09:18:56;;;;;;;4.10;2.50;;;2.20;99.90;;;;;;5010499;28;20219;-39
2023/01/17 09:21:22;;;;;;;5.57;3.60;;;2.20;99.90;;;;;;5010745;28;20265;-38
2023/01/17 09:23:48;;;;;;;4.63;2.87;;;2.20;99.90;;;;;;5012097;28;20171;-40
2023/01/17 09:26:19;;;;;;;7.33;3.30;;;2.30;99.90;;;;;;5010888;28;20183;-36
2023/01/17 09:28:45;;;;;;;7.93;3.40;;;2.40;99.90;;;;;;5011911;28;20285;-39
2023/01/17 09:31:11;;;;;;;5.17;2.93;;;2.50;99.90;;;;;;5012072;28;20211;-38
2023/01/17 09:33:40;;;;;;;4.10;2.73;;;2.50;99.90;;;;;;5009554;28;20214;-40
2023/01/17 09:36:06;;;;;;;4.17;2.80;;;2.60;99.90;;;;;;5010841;28;20585;-39
2023/01/17 09:38:32;;;;;;;6.03;3.07;;;2.80;99.90;;;;;;5027407;28;20218;-35
2023/01/17 09:40:59;;;;;;;5.97;3.00;;;2.80;99.90;;;;;;5026741;28;20262;-40
2023/01/17 09:43:46;;;;;;;6.10;3.57;;;2.90;99.90;;;;;;5010006;28;20179;-39
2023/01/17 09:46:22;;;;;;;5.73;3.23;;;3.00;99.90;;;;;;5011239;28;20175;-40
2023/01/17 09:48:58;;;;;;;4.67;2.93;;;3.00;99.90;;;;;;5010253;28;20281;-38
2023/01/17 09:51:24;;;;;;;4.20;2.70;;;3.10;99.90;;;;;;5010821;28;20198;-39
2023/01/17 09:53:51;;;;;;;6.87;3.30;;;3.30;99.90;;;;;;5011583;28;20217;-37
2023/01/17 09:56:23;;;;;;;5.87;2.87;;;3.50;99.90;;;;;;4994210;28;20191;-39
2023/01/17 09:59:50;;;;;;;3.87;2.70;;;3.60;99.90;;;;;;4993835;28;20206;-38
2023/01/17 10:02:35;;;;;;;3.47;2.10;;;3.80;99.90;;;;;;4948364;28;20280;-39
2023/01/17 10:05:15;;;;;;;4.53;2.70;;;3.90;99.90;;;;;;5004398;28;20195;-38
2023/01/17 10:07:55;;;;;;;3.33;1.97;;;3.90;99.90;;;;;;5026768;28;20179;-39
2023/01/17 10:10:33;;;;;;;5.17;2.00;;;3.90;99.90;;;;;;5010120;28;20210;-40
2023/01/17 10:13:17;;;;;;;3.67;2.20;;;4.00;99.90;;;;;;5010208;28;20175;-38
2023/01/17 10:16:17;;;;;;;2.63;1.57;;;4.00;99.90;;;;;;5009895;28;20202;-35
2023/01/17 10:18:58;;;;;;;2.43;1.40;;;4.20;99.90;;;;;;5009880;28;20563;-38
2023/01/17 10:21:48;;;;;;;1.97;1.60;;;4.30;99.90;;;;;;5010267;28;20175;-37
2023/01/17 10:24:39;;;;;;;3.70;1.90;;;4.40;99.90;;;;;;5026040;28;20302;-38
2023/01/17 10:27:18;;;;;;;3.33;1.63;;;4.50;99.90;;;;;;5011278;28;20179;-35
2023/01/17 10:29:46;;;;;;;3.00;1.93;;;4.50;99.90;;;;;;5009816;28;20586;-38
2023/01/17 10:32:13;;;;;;;3.03;1.73;;;4.60;99.90;;;;;;5003302;28;20200;-39
2023/01/17 10:34:48;;;;;;;3.13;1.73;;;4.70;99.90;;;;;;4996736;28;20259;-38
2023/01/17 10:37:42;;;;;;;2.83;1.53;;;4.70;99.90;;;;;;4990112;28;20190;-40
2023/01/17 10:40:25;;;;;;;2.30;1.30;;;4.80;99.90;;;;;;5001263;28;20185;-38
2023/01/17 10:43:05;;;;;;;3.43;1.30;;;4.90;99.90;;;;;;4979774;28;20252;-39
2023/01/17 10:45:39;;;;;;;1.33;1.00;;;4.80;99.90;;;;;;4990898;28;20243;-39
2023/01/17 10:48:10;;;;;;;2.33;1.20;;;4.80;99.90;;;;;;5009015;28;20184;-37
2023/01/17 10:51:11;;;;;;;4.17;1.37;;;4.80;99.90;;;;;;5008536;28;20194;-39
2023/01/17 10:53:49;;;;;;;2.63;1.10;;;4.80;99.90;;;;;;5008693;28;20178;-37
2023/01/17 10:56:18;;;;;;;1.77;1.30;;;4.70;99.90;;;;;;4993501;28;20188;-40
2023/01/17 10:58:46;;;;;;;2.40;1.17;;;4.70;99.90;;;;;;5008930;28;20205;-38
2023/01/17 11:01:20;;;;;;;2.03;1.30;;;4.70;99.90;;;;;;4995167;28;20176;-37
2023/01/17 11:03:50;;;;;;;1.90;1.07;;;4.70;99.90;;;;;;5004475;28;20197;-38
2023/01/17 11:06:22;;;;;;;1.70;1.00;;;4.70;99.90;;;;;;5022807;28;20202;-39
2023/01/17 11:08:54;;;;;;;2.73;1.10;;;4.70;99.90;;;;;;5018911;28;20200;-39
2023/01/17 11:11:23;;;;;;;1.93;1.40;;;4.80;99.90;;;;;;5050380;28;20185;-38
2023/01/17 11:13:51;;;;;;;1.47;1.13;;;4.90;99.90;;;;;;5034694;28;20181;-37
2023/01/17 11:16:20;;;;;;;1.47;1.20;;;5.00;99.90;;;;;;5033761;28;20187;-37
2023/01/17 11:19:02;;;;;;;2.93;1.17;;;5.10;99.90;;;;;;5033843;28;20218;-42
2023/01/17 11:21:28;;;;;;;2.07;1.27;;;5.00;99.90;;;;;;5033667;28;20171;-43
2023/01/17 11:23:56;;;;;;;4.10;1.60;;;5.00;99.90;;;;;;5028407;28;20178;-42
2023/01/17 11:26:31;;;;;;;3.53;1.23;;;4.90;99.90;;;;;;5017258;28;20266;-40
2023/01/17 11:29:31;;;;;;;1.87;1.67;;;4.90;99.90;;;;;;5011190;28;20178;-42
2023/01/17 11:32:20;;;;;;;3.13;1.53;;;4.80;99.90;;;;;;5004133;28;20263;-40
2023/01/17 11:35:43;;;;;;;2.03;1.00;;;4.80;99.90;;;;;;5002180;28;20212;-39
2023/01/17 11:38:18;;;;;;;2.50;1.23;;;4.80;99.90;;;;;;4979460;28;20201;-40
2023/01/17 11:40:48;;;;;;;1.77;1.30;;;4.80;99.90;;;;;;4966695;28;20179;-38
2023/01/17 11:43:27;;;;;;;1.53;1.40;;;4.80;99.90;;;;;;4986491;28;20222;-41
2023/01/17 11:46:12;;;;;;;1.70;1.07;;;4.80;99.90;;;;;;4995041;28;20200;-41
2023/01/17 11:48:38;;;;;;;2.63;1.00;;;4.80;99.90;;;;;;4993195;28;20190;-41
2023/01/17 11:51:17;;;;;;;1.67;1.20;;;4.80;99.90;;;;;;4993014;28;20188;-42
2023/01/17 11:53:47;;;;;;;1.27;0.97;;;4.70;99.90;;;;;;4992806;28;20178;-42
2023/01/17 11:56:21;;;;;;;2.67;1.20;;;4.70;99.90;;;;;;5008566;28;20184;-41
2023/01/17 11:58:48;;;;;;;1.67;1.30;;;4.80;99.90;;;;;;5009268;28;20210;-41
2023/01/17 12:01:41;;;;;;;3.30;1.13;;;4.70;99.90;;;;;;4992821;28;20174;-38
2023/01/17 12:04:22;;;;;;;2.27;1.20;;;4.70;99.90;;;;;;5006094;28;20200;-41
2023/01/17 12:07:14;;;;;;;1.20;0.97;;;4.70;99.90;;;;;;5006081;28;20179;-40
2023/01/17 12:10:11;;;;;;;3.43;1.00;;;4.70;99.90;;;;;;5028919;28;20184;-42
2023/01/17 12:19:20;;;;;;;2.60;1.00;;;4.70;99.90;;;;;;5009076;28;20666;-42
2023/01/17 12:22:14;;;;;;;2.90;1.40;;;4.70;99.90;;;;;;5012241;28;20253;-41
2023/01/17 12:24:58;;;;;;;2.87;1.40;;;4.80;99.90;;;;;;4976900;28;20199;-41
2023/01/17 12:27:39;;;;;;;2.60;1.40;;;4.90;99.90;;;;;;4993686;28;20652;-42
2023/01/17 12:30:23;;;;;;;7.23;1.87;;;4.90;99.90;;;;;;5012293;28;20191;-43
2023/01/17 12:33:21;;;;;;;2.93;1.47;;;4.90;99.90;;;;;;5008883;28;20642;-42
2023/01/17 12:35:51;;;;;;;1.63;1.00;;;4.90;99.90;;;;;;4975925;28;20203;-41
2023/01/17 12:38:45;;;;;;;4.97;1.50;;;4.90;99.90;;;;;;4994423;28;20237;-42
2023/01/17 12:41:15;;;;;;;3.07;1.30;;;4.90;99.90;;;;;;4991417;28;20216;-42
2023/01/17 12:43:43;;;;;;;3.07;1.40;;;4.90;99.90;;;;;;5015020;28;20170;-42
2023/01/17 12:46:37;;;;;;;2.40;1.50;;;5.00;99.90;;;;;;5011656;28;20260;-42
2023/01/17 12:49:24;;;;;;;1.90;1.27;;;5.00;99.90;;;;;;5011334;28;20642;-42
2023/01/17 12:52:03;;;;;;;2.60;1.20;;;5.00;99.90;;;;;;5011404;28;20271;-40
2023/01/17 12:54:41;;;;;;;2.20;1.00;;;5.10;99.90;;;;;;5010938;28;20206;-42
2023/01/17 12:57:14;;;;;;;2.80;1.37;;;5.10;99.90;;;;;;5011062;28;20184;-41
2023/01/17 12:59:58;;;;;;;2.90;1.77;;;5.10;99.90;;;;;;5008315;28;20211;-42
2023/01/17 13:02:53;;;;;;;1.87;1.30;;;5.00;99.90;;;;;;5002176;28;20296;-42
2023/01/17 13:05:26;;;;;;;0.93;0.87;;;5.00;99.90;;;;;;4991484;28;20296;-42
2023/01/17 13:08:19;;;;;;;1.27;0.90;;;5.00;99.90;;;;;;5008156;28;20639;-40
2023/01/17 13:11:05;;;;;;;1.00;0.90;;;5.00;99.90;;;;;;4991233;28;20182;-41
2023/01/17 13:13:31;;;;;;;1.23;0.97;;;5.00;99.90;;;;;;5009069;28;20205;-42
2023/01/17 13:16:13;;;;;;;1.37;0.87;;;5.00;99.90;;;;;;5005894;28;20207;-41
2023/01/17 13:18:47;;;;;;;2.30;0.97;;;5.10;99.90;;;;;;5010661;28;20861;-41
2023/01/17 13:21:32;;;;;;;1.03;0.93;;;5.00;99.90;;;;;;5010372;28;20177;-42
2023/01/17 13:24:19;;;;;;;2.33;1.20;;;5.10;99.90;;;;;;5010295;28;20197;-42
2023/01/17 13:27:22;;;;;;;1.23;1.00;;;5.10;99.90;;;;;;4994798;28;20180;-43
2023/01/17 13:30:18;;;;;;;1.67;1.20;;;5.10;99.90;;;;;;5001149;28;20199;-42
2023/01/17 13:32:50;;;;;;;2.07;0.90;;;5.10;99.90;;;;;;5008269;28;20186;-42
2023/01/17 13:35:25;;;;;;;3.00;1.20;;;5.10;99.90;;;;;;4991259;28;20293;-42
2023/01/17 13:38:06;;;;;;;2.77;1.27;;;5.20;99.90;;;;;;5018515;28;20213;-42
2023/01/17 13:41:00;;;;;;;2.63;1.27;;;5.20;99.90;;;;;;5008206;28;20174;-42
2023/01/17 13:43:35;;;;;;;2.00;0.70;;;5.20;99.90;;;;;;5017149;28;20807;-41
2023/01/17 13:46:02;;;;;;;2.73;0.80;;;5.10;99.90;;;;;;5001923;28;20199;-42
2023/01/17 13:48:37;;;;;;;1.20;1.10;;;5.20;99.90;;;;;;5017618;28;20246;-42
2023/01/17 13:51:04;;;;;;;2.33;1.03;;;5.20;99.90;;;;;;5012301;28;20217;-42
2023/01/17 13:53:33;;;;;;;1.47;1.00;;;5.20;99.90;;;;;;5018054;28;20176;-43
2023/01/17 13:56:05;;;;;;;1.83;1.13;;;5.10;99.90;;;;;;5015247;28;20211;-42
2023/01/17 13:59:00;;;;;;;2.97;0.90;;;5.10;99.90;;;;;;5016764;28;20198;-42
2023/01/17 14:01:38;;;;;;;1.20;0.97;;;5.00;99.90;;;;;;5012806;28;20203;-42
2023/01/17 14:04:09;;;;;;;1.87;1.10;;;5.00;99.90;;;;;;5017567;28;20209;-42
2023/01/17 14:06:35;;;;;;;2.47;0.83;;;5.00;99.90;;;;;;5014673;28;20179;-43
2023/01/17 14:09:09;;;;;;;2.33;1.17;;;4.90;99.90;;;;;;5017756;28;20184;-41
2023/01/17 14:11:48;;;;;;;3.43;1.10;;;4.90;99.90;;;;;;5016877;28;20212;-42
2023/01/17 14:14:39;;;;;;;2.73;1.23;;;4.90;99.90;;;;;;5016939;28;20209;-41
2023/01/17 14:17:26;;;;;;;2.10;0.97;;;4.80;99.90;;;;;;5014118;28;20191;-42
2023/01/17 14:20:00;;;;;;;1.80;1.20;;;4.80;99.90;;;;;;5024740;28;20208;-43
2023/01/17 14:22:39;;;;;;;1.40;1.23;;;4.70;99.90;;;;;;5023992;28;20190;-42
2023/01/17 14:25:11;;;;;;;1.63;1.17;;;4.70;99.90;;;;;;5014108;28;20218;-41
2023/01/17 14:27:42;;;;;;;2.10;1.23;;;4.70;99.90;;;;;;5011706;28;20220;-42
2023/01/17 14:30:23;;;;;;;1.60;1.37;;;4.70;99.90;;;;;;5011552;28;20197;-41
2023/01/17 14:32:59;;;;;;;1.37;1.27;;;4.60;99.90;;;;;;5026338;28;20204;-42
2023/01/17 14:35:35;;;;;;;3.00;1.40;;;4.60;99.90;;;;;;5011070;28;20268;-40
2023/01/17 14:38:09;;;;;;;2.60;2.13;;;4.50;99.90;;;;;;5015488;28;20189;-42
2023/01/17 14:40:38;;;;;;;1.60;1.50;;;4.60;99.90;;;;;;4991371;28;20182;-41
2023/01/17 14:43:14;;;;;;;2.53;1.20;;;4.50;99.90;;;;;;5014931;28;20174;-42
2023/01/17 14:45:42;;;;;;;1.40;1.10;;;4.50;99.90;;;;;;5013388;28;20290;-41
2023/01/17 14:48:18;;;;;;;4.00;1.20;;;4.50;99.90;;;;;;4998233;28;20179;-38
2023/01/17 14:50:57;;;;;;;3.33;1.07;;;4.40;99.90;;;;;;4995785;28;20212;-41
2023/01/17 14:53:32;;;;;;;4.87;1.93;;;4.40;99.90;;;;;;5009333;28;20268;-40
2023/01/17 14:56:16;;;;;;;1.73;1.40;;;4.40;99.90;;;;;;5009528;28;20197;-41